createdAt,value
2022-11-05T00:03:24.237Z,13.07
2022-11-05T00:06:19.813Z,13.00
2022-11-05T00:09:17.905Z,13.02
2022-11-05T00:12:07.118Z,12.40
2022-11-05T00:15:00.474Z,13.07
2022-11-05T00:17:33.447Z,13.57
2022-11-05T00:20:14.289Z,14.15
2022-11-05T00:23:23.168Z,13.80
2022-11-05T00:26:27.293Z,13.45
2022-11-05T00:28:58.336Z,14.00
2022-11-05T00:31:38.301Z,13.60
2022-11-05T00:34:08.850Z,12.85
2022-11-05T00:36:44.894Z,15.00
2022-11-05T00:39:19.598Z,14.68
2022-11-05T00:42:18.441Z,14.95
2022-11-05T00:45:02.231Z,13.68
2022-11-05T00:48:33.698Z,14.68
2022-11-05T00:51:04.605Z,15.23
2022-11-05T00:53:39.844Z,16.55
2022-11-05T00:56:07.541Z,14.50
2022-11-05T00:58:35.034Z,15.23
2022-11-05T01:01:06.031Z,15.45
2022-11-05T01:03:37.413Z,14.73
2022-11-05T01:06:15.226Z,16.02
2022-11-05T01:08:50.619Z,17.20
2022-11-05T01:11:51.395Z,16.02
2022-11-05T01:14:39.085Z,16.85
2022-11-05T01:17:16.467Z,15.55
2022-11-05T01:19:58.065Z,15.35
2022-11-05T01:25:28.348Z,15.48
2022-11-05T01:28:07.695Z,15.45
2022-11-05T01:30:43.353Z,15.93
2022-11-05T01:33:40.799Z,15.13
2022-11-05T01:36:18.058Z,14.38
2022-11-05T01:40:15.284Z,14.82
2022-11-05T01:42:47.986Z,14.35
2022-11-05T01:49:09.993Z,14.60
2022-11-05T01:51:50.112Z,13.88
2022-11-05T01:54:37.309Z,13.60
2022-11-05T01:57:15.107Z,14.27
2022-11-05T02:03:07.232Z,13.77
2022-11-05T02:05:46.511Z,14.52
2022-11-05T02:08:36.908Z,14.95
2022-11-05T02:11:23.958Z,14.35
2022-11-05T02:13:55.424Z,15.45
2022-11-05T02:16:55.695Z,14.13
2022-11-05T02:20:01.062Z,13.25
2022-11-05T02:23:14.380Z,12.65
2022-11-05T02:26:08.278Z,13.70
2022-11-05T02:29:11.420Z,12.93
2022-11-05T02:32:22.082Z,13.43
2022-11-05T02:35:01.308Z,15.18
2022-11-05T02:37:43.932Z,19.65
2022-11-05T02:41:03.961Z,22.48
2022-11-05T02:47:43.778Z,14.68
2022-11-05T02:50:46.271Z,14.38
2022-11-05T02:53:53.467Z,15.18
2022-11-05T02:59:59.257Z,16.00
2022-11-05T03:06:56.829Z,19.55
2022-11-05T03:10:31.203Z,18.50
2022-11-05T03:14:01.446Z,23.83
2022-11-05T03:17:21.793Z,22.38
2022-11-05T03:20:25.656Z,23.90
2022-11-05T03:23:35.360Z,23.85
2022-11-05T03:26:37.788Z,30.77
2022-11-05T03:29:57.934Z,31.93
2022-11-05T03:33:30.348Z,35.53
2022-11-05T03:36:27.343Z,34.22
2022-11-05T03:39:45.057Z,34.90
2022-11-05T03:42:28.467Z,32.83
2022-11-05T03:46:21.023Z,31.95
2022-11-05T03:50:01.864Z,30.23
2022-11-05T03:53:21.293Z,27.55
2022-11-05T03:56:44.019Z,26.77
2022-11-05T03:59:24.959Z,25.77
2022-11-05T04:02:35.601Z,25.00
2022-11-05T04:05:15.155Z,23.52
2022-11-05T04:08:14.300Z,25.02
2022-11-05T04:11:43.494Z,23.52
2022-11-05T04:14:20.282Z,23.88
2022-11-05T04:17:28.432Z,22.67
2022-11-05T04:20:15.466Z,21.63
2022-11-05T04:23:06.425Z,21.33
2022-11-05T04:25:35.418Z,21.20
2022-11-05T04:28:03.039Z,18.80
2022-11-05T04:30:31.056Z,19.52
2022-11-05T04:33:08.904Z,19.70
2022-11-05T04:35:51.171Z,20.00
2022-11-05T04:38:21.563Z,20.73
2022-11-05T04:40:51.760Z,18.65
2022-11-05T04:43:27.290Z,18.33
2022-11-05T04:45:59.504Z,19.13
2022-11-05T04:48:45.718Z,19.58
2022-11-05T04:51:36.332Z,17.95
2022-11-05T04:54:57.465Z,19.52
2022-11-05T04:57:33.830Z,20.25
2022-11-05T05:01:00.213Z,19.58
2022-11-05T05:04:54.134Z,19.23
2022-11-05T05:07:29.124Z,18.35
2022-11-05T05:10:14.085Z,19.17
2022-11-05T05:12:54.601Z,19.13
2022-11-05T05:15:26.341Z,19.52
2022-11-05T05:18:34.429Z,19.40
2022-11-05T05:21:48.133Z,22.52
2022-11-05T05:24:25.264Z,20.73
2022-11-05T05:30:24.460Z,22.35
2022-11-05T05:33:04.571Z,22.30
2022-11-05T05:35:38.624Z,21.30
2022-11-05T05:38:10.126Z,21.35
2022-11-05T05:40:38.875Z,22.23
2022-11-05T05:43:09.114Z,21.13
2022-11-05T05:45:36.748Z,20.42
2022-11-05T05:48:06.819Z,20.92
2022-11-05T05:50:34.692Z,22.50
2022-11-05T05:53:08.136Z,20.42
2022-11-05T05:55:36.152Z,20.60
2022-11-05T05:58:03.382Z,21.42
2022-11-05T06:00:39.629Z,23.75
2022-11-05T06:03:20.155Z,22.70
2022-11-05T06:05:49.978Z,25.80
2022-11-05T06:08:20.815Z,28.90
2022-11-05T06:11:24.186Z,28.50
2022-11-05T06:17:06.048Z,26.58
2022-11-05T06:19:53.426Z,26.15
2022-11-05T06:22:22.681Z,25.33
2022-11-05T06:24:50.115Z,25.88
2022-11-05T06:27:17.527Z,27.27
2022-11-05T06:29:45.802Z,28.33
2022-11-05T06:32:15.389Z,30.20
2022-11-05T06:34:48.006Z,32.50
2022-11-05T06:37:17.655Z,29.25
2022-11-05T06:39:44.856Z,28.67
2022-11-05T06:42:18.663Z,29.45
2022-11-05T06:44:47.722Z,31.52
2022-11-05T06:47:18.876Z,27.90
2022-11-05T06:49:49.284Z,163.35
2022-11-05T06:52:18.151Z,174.23
2022-11-05T06:54:45.665Z,59.70
2022-11-05T06:57:13.286Z,27.65
2022-11-05T06:59:43.196Z,31.00
2022-11-05T07:02:13.048Z,38.88
2022-11-05T07:04:40.356Z,36.00
2022-11-05T07:07:10.978Z,31.42
2022-11-05T07:09:42.946Z,30.35
2022-11-05T07:12:17.905Z,64.43
2022-11-05T07:14:49.353Z,30.17
2022-11-05T07:17:22.451Z,59.55
2022-11-05T07:19:50.003Z,45.38
2022-11-05T07:22:17.534Z,57.85
2022-11-05T07:24:50.359Z,41.65
2022-11-05T07:27:19.142Z,38.30
2022-11-05T07:29:46.931Z,30.95
2022-11-05T07:32:14.434Z,30.75
2022-11-05T07:34:41.727Z,35.25
2022-11-05T07:37:09.498Z,39.92
2022-11-05T07:39:37.966Z,38.33
2022-11-05T07:42:05.504Z,39.28
2022-11-05T07:44:35.295Z,38.22
2022-11-05T07:47:22.033Z,39.28
2022-11-05T07:49:54.315Z,36.20
2022-11-05T07:52:29.575Z,36.75
2022-11-05T07:55:13.867Z,36.30
2022-11-05T07:58:32.432Z,35.80
2022-11-05T08:03:54.652Z,39.85
2022-11-05T08:06:31.472Z,40.58
2022-11-05T08:09:43.536Z,37.03
2022-11-05T08:17:24.373Z,40.28
2022-11-05T08:30:48.816Z,89.60
2022-11-05T08:33:45.607Z,111.20
2022-11-05T08:36:28.364Z,52.67
2022-11-05T08:42:11.752Z,46.17
2022-11-05T08:44:49.192Z,48.90
2022-11-05T08:50:40.560Z,45.35
2022-11-05T08:53:17.950Z,48.08
2022-11-05T08:56:19.647Z,46.17
2022-11-05T08:59:08.339Z,50.15
2022-11-05T09:01:55.584Z,52.13
2022-11-05T09:04:42.045Z,53.40
2022-11-05T09:08:00.791Z,52.97
2022-11-05T09:10:54.557Z,57.03
2022-11-05T09:13:57.126Z,54.90
2022-11-05T09:16:52.621Z,54.50
2022-11-05T09:26:20.221Z,52.08
2022-11-05T09:30:33.298Z,47.80
2022-11-05T09:36:52.771Z,50.58
2022-11-05T09:39:23.566Z,47.80
2022-11-05T09:41:54.319Z,45.63
2022-11-05T09:44:26.595Z,47.25
2022-11-05T09:47:01.796Z,49.97
2022-11-05T09:49:31.973Z,51.38
2022-11-05T09:52:01.704Z,48.90
2022-11-05T09:54:33.937Z,48.13
2022-11-05T09:57:07.170Z,47.00
2022-11-05T09:59:47.202Z,51.15
2022-11-05T10:02:23.694Z,51.42
2022-11-05T10:04:57.222Z,50.28
2022-11-05T10:07:34.668Z,47.47
2022-11-05T10:10:09.276Z,52.35
2022-11-05T10:12:47.085Z,49.67
2022-11-05T10:15:17.523Z,44.90
2022-11-05T10:17:49.248Z,42.47
2022-11-05T10:20:34.185Z,41.72
2022-11-05T10:23:20.624Z,43.30
2022-11-05T10:26:04.588Z,42.70
2022-11-05T10:28:44.890Z,42.83
2022-11-05T10:32:17.317Z,43.75
2022-11-05T10:39:28.540Z,46.80
2022-11-05T10:42:57.789Z,50.35
2022-11-05T10:54:02.836Z,57.40
2022-11-05T11:01:23.687Z,63.72
2022-11-05T11:04:54.068Z,62.90
2022-11-05T11:13:22.999Z,63.60
2022-11-05T11:26:02.901Z,36.90
2022-11-05T11:29:37.200Z,31.55
2022-11-05T11:33:15.322Z,32.20
2022-11-05T11:50:39.667Z,26.88
2022-11-05T11:53:31.388Z,21.00
2022-11-05T11:56:06.395Z,23.02
2022-11-05T11:59:46.659Z,22.58
2022-11-05T12:12:42.088Z,27.33
2022-11-05T12:16:29.020Z,22.05
2022-11-05T12:19:54.726Z,22.80
2022-11-05T12:22:40.415Z,22.63
2022-11-05T12:25:16.497Z,25.05
2022-11-05T12:28:14.160Z,24.98
2022-11-05T12:31:03.257Z,21.73
2022-11-05T12:33:45.733Z,16.85
2022-11-05T12:36:20.521Z,14.52
2022-11-05T12:39:19.662Z,15.93
2022-11-05T12:42:06.187Z,18.67
2022-11-05T12:44:33.425Z,24.13
2022-11-05T12:47:15.030Z,17.77
2022-11-05T12:50:04.469Z,18.85
2022-11-05T12:52:44.249Z,16.15
2022-11-05T12:55:15.700Z,17.77
2022-11-05T12:57:47.252Z,22.60
2022-11-05T13:00:27.115Z,25.27
2022-11-05T13:03:10.855Z,25.40
2022-11-05T13:05:55.158Z,27.55
2022-11-05T13:08:57.491Z,25.15
2022-11-05T13:11:39.947Z,23.73
2022-11-05T13:14:22.554Z,25.52
2022-11-05T13:16:54.157Z,23.73
2022-11-05T13:19:32.174Z,23.35
2022-11-05T13:22:21.511Z,23.80
2022-11-05T13:24:53.706Z,25.88
2022-11-05T13:27:49.421Z,29.17
2022-11-05T13:30:24.556Z,25.33
2022-11-05T13:33:06.352Z,23.95
2022-11-05T13:36:24.573Z,24.90
2022-11-05T13:39:07.081Z,24.67
2022-11-05T13:42:14.620Z,27.48
2022-11-05T13:45:08.231Z,25.77
2022-11-05T13:48:04.571Z,20.20
2022-11-05T13:51:00.650Z,27.55
2022-11-05T13:54:09.241Z,33.63
2022-11-05T13:56:56.295Z,28.33
2022-11-05T13:59:38.785Z,28.73
2022-11-05T14:02:23.907Z,26.35
2022-11-05T14:05:01.507Z,20.48
2022-11-05T14:07:32.258Z,15.70
2022-11-05T14:10:11.712Z,19.27
2022-11-05T14:12:40.773Z,17.23
2022-11-05T14:15:20.273Z,14.38
2022-11-05T14:18:27.261Z,10.98
2022-11-05T14:20:59.954Z,12.75
2022-11-05T14:23:38.458Z,10.98
2022-11-05T14:26:19.228Z,12.00
2022-11-05T14:29:04.736Z,15.30
2022-11-05T14:32:08.349Z,15.15
2022-11-05T14:35:00.745Z,13.18
2022-11-05T14:37:33.354Z,12.38
2022-11-05T14:40:37.267Z,12.52
2022-11-05T14:43:25.958Z,13.07
2022-11-05T14:46:03.569Z,14.00
2022-11-05T14:48:35.846Z,13.32
2022-11-05T14:51:17.186Z,15.18
2022-11-05T14:53:45.081Z,17.55
2022-11-05T14:56:19.001Z,17.42
2022-11-05T14:58:47.057Z,17.80
2022-11-05T15:01:14.259Z,18.50
2022-11-05T15:03:46.449Z,16.77
2022-11-05T15:06:22.547Z,16.75
2022-11-05T15:08:49.750Z,19.85
2022-11-05T15:11:22.875Z,21.42
2022-11-05T15:13:56.037Z,20.48
2022-11-05T15:16:31.679Z,21.02
2022-11-05T15:19:00.094Z,22.33
2022-11-05T15:21:31.804Z,21.77
2022-11-05T15:23:59.910Z,23.75
2022-11-05T15:26:47.589Z,22.25
2022-11-05T15:29:22.287Z,24.80
2022-11-05T15:31:50.970Z,19.95
2022-11-05T15:34:36.339Z,26.27
2022-11-05T15:37:12.863Z,27.48
2022-11-05T15:39:45.770Z,26.83
2022-11-05T15:42:15.804Z,24.73
2022-11-05T15:44:54.331Z,23.73
2022-11-05T15:47:23.793Z,31.40
2022-11-05T15:49:57.174Z,27.83
2022-11-05T15:52:33.774Z,31.73
2022-11-05T15:55:14.516Z,29.33
2022-11-05T15:58:07.321Z,32.22
2022-11-05T16:00:37.200Z,29.55
2022-11-05T16:03:12.518Z,28.17
2022-11-05T16:05:46.370Z,29.25
2022-11-05T16:08:46.102Z,32.72
2022-11-05T16:11:25.482Z,31.38
2022-11-05T16:14:14.551Z,32.53
2022-11-05T16:16:44.458Z,32.22
2022-11-05T16:19:40.236Z,32.60
2022-11-05T16:22:09.331Z,33.47
2022-11-05T16:24:39.403Z,36.38
2022-11-05T16:27:08.476Z,33.85
2022-11-05T16:29:45.000Z,35.22
2022-11-05T16:32:29.692Z,33.95
2022-11-05T16:35:03.094Z,39.03
2022-11-05T16:37:40.130Z,39.17
2022-11-05T16:40:19.573Z,38.25
2022-11-05T16:42:48.629Z,41.70
2022-11-05T16:45:18.452Z,42.35
2022-11-05T16:47:47.464Z,41.15
2022-11-05T16:50:36.981Z,46.20
2022-11-05T16:53:10.044Z,39.30
2022-11-05T16:55:42.408Z,40.38
2022-11-05T16:58:27.973Z,38.25
2022-11-05T17:01:08.819Z,36.53
2022-11-05T17:03:37.257Z,38.03
2022-11-05T17:06:06.405Z,38.92
2022-11-05T17:08:36.397Z,37.53
2022-11-05T17:11:06.723Z,38.22
2022-11-05T17:13:36.395Z,36.45
2022-11-05T17:16:04.919Z,35.95
2022-11-05T17:18:33.650Z,36.10
2022-11-05T17:21:01.856Z,36.30
2022-11-05T17:23:30.412Z,38.50
2022-11-05T17:26:07.701Z,37.03
2022-11-05T17:28:37.807Z,34.42
2022-11-05T17:31:10.844Z,31.45
2022-11-05T17:33:40.754Z,29.20
2022-11-05T17:36:13.312Z,28.83
2022-11-05T17:38:43.666Z,28.23
2022-11-05T17:41:16.955Z,29.42
2022-11-05T17:43:47.355Z,28.35
2022-11-05T17:46:17.399Z,27.67
2022-11-05T17:48:46.447Z,28.35
2022-11-05T17:51:19.894Z,30.33
2022-11-05T17:53:49.299Z,30.98
2022-11-05T17:56:33.459Z,31.98
2022-11-05T17:59:04.452Z,32.47
2022-11-05T18:01:35.728Z,31.83
2022-11-05T18:04:08.581Z,31.10
2022-11-05T18:06:40.536Z,29.73
2022-11-05T18:09:10.499Z,31.30
2022-11-05T18:11:39.758Z,31.85
2022-11-05T18:14:08.488Z,35.80
2022-11-05T18:16:38.265Z,37.63
2022-11-05T18:19:09.174Z,32.10
2022-11-05T18:21:38.152Z,32.72
2022-11-05T18:24:08.345Z,30.52
2022-11-05T18:26:37.338Z,31.85
2022-11-05T18:29:12.069Z,33.20
2022-11-05T18:31:44.096Z,30.13
2022-11-05T18:34:12.397Z,28.95
2022-11-05T18:36:45.475Z,27.05
2022-11-05T18:39:18.078Z,28.75
2022-11-05T18:41:47.072Z,29.53
2022-11-05T18:44:22.829Z,29.33
2022-11-05T18:46:58.233Z,28.95
2022-11-05T18:49:29.966Z,28.80
2022-11-05T18:51:58.030Z,30.48
2022-11-05T18:54:27.043Z,29.42
2022-11-05T18:57:01.086Z,31.77
2022-11-05T19:02:14.779Z,31.30
2022-11-05T19:05:06.573Z,31.43
2022-11-05T19:07:40.262Z,30.02
2022-11-05T19:10:09.339Z,30.88
2022-11-05T19:12:43.345Z,29.65
2022-11-05T19:15:15.773Z,26.90
2022-11-05T19:17:46.948Z,26.95
2022-11-05T19:20:17.222Z,28.08
2022-11-05T19:22:50.875Z,27.95
2022-11-05T19:25:18.919Z,31.50
2022-11-05T19:27:47.094Z,26.55
2022-11-05T19:30:16.049Z,25.92
2022-11-05T19:32:43.564Z,24.60
2022-11-05T19:35:10.778Z,23.80
2022-11-05T19:37:38.337Z,23.08
2022-11-05T19:40:10.225Z,23.80
2022-11-05T19:42:38.035Z,22.58
2022-11-05T19:47:54.219Z,22.15
2022-11-05T19:50:21.486Z,21.35
2022-11-05T19:52:49.095Z,22.67
2022-11-05T19:55:16.458Z,23.77
2022-11-05T19:57:45.227Z,24.60
2022-11-05T20:00:15.989Z,24.85
2022-11-05T20:02:48.808Z,22.70
2022-11-05T20:05:19.465Z,22.35
2022-11-05T20:07:52.543Z,22.88
2022-11-05T20:10:20.675Z,22.05
2022-11-05T20:12:53.620Z,20.50
2022-11-05T20:15:21.351Z,23.88
2022-11-05T20:17:52.842Z,27.75
2022-11-05T20:20:21.488Z,28.20
2022-11-05T20:22:53.283Z,27.40
2022-11-05T20:25:21.411Z,27.42
2022-11-05T20:27:50.000Z,28.25
2022-11-05T20:30:17.527Z,24.30
2022-11-05T20:32:45.355Z,24.83
2022-11-05T20:35:14.332Z,26.65
2022-11-05T20:37:43.616Z,24.95
2022-11-05T20:40:15.347Z,24.70
2022-11-05T20:42:44.182Z,24.23
2022-11-05T20:45:15.925Z,24.90
2022-11-05T20:47:47.436Z,27.00
2022-11-05T20:50:19.067Z,32.95
2022-11-05T20:52:46.973Z,31.98
2022-11-05T20:55:15.554Z,32.75
2022-11-05T20:57:43.644Z,35.55
2022-11-05T21:00:15.414Z,35.85
2022-11-05T21:02:44.478Z,32.60
2022-11-05T21:05:13.389Z,32.10
2022-11-05T21:07:42.884Z,32.33
2022-11-05T21:10:12.786Z,30.15
2022-11-05T21:12:40.504Z,32.85
2022-11-05T21:15:09.142Z,30.67
2022-11-05T21:17:37.771Z,30.63
2022-11-05T21:20:11.370Z,31.13
2022-11-05T21:22:45.461Z,32.65
2022-11-05T21:25:13.404Z,31.42
2022-11-05T21:27:44.802Z,28.83
2022-11-05T21:30:14.680Z,34.28
2022-11-05T21:32:45.165Z,30.85
2022-11-05T21:35:12.604Z,33.83
2022-11-05T21:37:42.165Z,37.15
2022-11-05T21:40:15.989Z,36.67
2022-11-05T21:42:43.942Z,36.97
2022-11-05T21:45:12.974Z,37.10
2022-11-05T21:47:40.827Z,40.97
2022-11-05T21:50:09.472Z,40.20
2022-11-05T21:52:55.980Z,39.70
2022-11-05T21:55:41.934Z,35.63
2022-11-05T21:58:34.190Z,41.55
2022-11-05T22:01:03.167Z,36.28
2022-11-05T22:03:32.932Z,36.97
2022-11-05T22:06:01.917Z,36.30
2022-11-05T22:08:30.672Z,36.40
2022-11-05T22:10:58.210Z,35.95
2022-11-05T22:13:25.729Z,36.22
2022-11-05T22:15:57.214Z,36.70
2022-11-05T22:18:24.843Z,38.20
2022-11-05T22:20:52.224Z,37.08
2022-11-05T22:23:22.571Z,37.53
2022-11-05T22:25:51.250Z,38.42
2022-11-05T22:28:20.439Z,39.53
2022-11-05T22:30:47.712Z,37.70
2022-11-05T22:33:18.839Z,38.90
2022-11-05T22:35:47.811Z,38.85
2022-11-05T22:38:18.277Z,38.67
2022-11-05T22:40:46.517Z,37.85
2022-11-05T22:43:14.549Z,41.20
2022-11-05T22:45:43.891Z,36.20
2022-11-05T22:48:11.672Z,39.33
2022-11-05T22:50:39.622Z,39.47
2022-11-05T22:53:07.124Z,37.55
2022-11-05T22:55:39.329Z,36.65
2022-11-05T22:58:07.777Z,35.20
2022-11-05T23:00:38.374Z,35.08
2022-11-05T23:03:06.331Z,37.13
2022-11-05T23:05:33.727Z,36.95
2022-11-05T23:08:20.860Z,38.88
2022-11-05T23:11:06.745Z,36.97
2022-11-05T23:13:34.407Z,39.85
2022-11-05T23:16:20.124Z,37.58
2022-11-05T23:19:06.386Z,37.75
2022-11-05T23:21:58.331Z,35.58
2022-11-05T23:24:25.967Z,35.78
2022-11-05T23:26:54.243Z,37.15
2022-11-05T23:29:24.656Z,36.80
2022-11-05T23:32:13.133Z,36.47
2022-11-05T23:34:41.444Z,34.78
2022-11-05T23:37:27.664Z,36.35
2022-11-05T23:39:56.223Z,35.05
2022-11-05T23:42:42.046Z,37.38
2022-11-05T23:45:28.979Z,35.90
2022-11-05T23:48:17.798Z,33.72
2022-11-05T23:50:50.403Z,34.53
2022-11-05T23:53:20.432Z,34.63
2022-11-05T23:55:49.268Z,34.22
2022-11-05T23:58:18.853Z,33.80
